sensor_id;sensor_type;location;lat;lon;timestamp;P1;durP1;ratioP1;P2;durP2;ratioP2
16113;SDS011;8161;-33.910;151.156;2023-11-21T00:00:43;1.47;;;0.50;;
16113;SDS011;8161;-33.910;151.156;2023-11-21T00:03:11;1.00;;;0.50;;
16113;SDS011;8161;-33.910;151.156;2023-11-21T00:05:40;1.40;;;0.40;;
16113;SDS011;8161;-33.910;151.156;2023-11-21T00:08:08;1.92;;;0.40;;
16113;SDS011;8161;-33.910;151.156;2023-11-21T00:10:36;3.08;;;0.60;;
16113;SDS011;8161;-33.910;151.156;2023-11-21T00:13:06;1.30;;;0.60;;
16113;SDS011;8161;-33.910;151.156;2023-11-21T00:15:33;1.80;;;0.70;;
16113;SDS011;8161;-33.910;151.156;2023-11-21T00:18:00;1.58;;;0.50;;
16113;SDS011;8161;-33.910;151.156;2023-11-21T00:20:27;1.45;;;0.80;;
16113;SDS011;8161;-33.910;151.156;2023-11-21T00:22:55;2.65;;;0.50;;
16113;SDS011;8161;-33.910;151.156;2023-11-21T00:25:22;1.70;;;0.40;;
16113;SDS011;8161;-33.910;151.156;2023-11-21T00:27:50;2.33;;;0.50;;
16113;SDS011;8161;-33.910;151.156;2023-11-21T00:30:17;4.57;;;0.40;;
16113;SDS011;8161;-33.910;151.156;2023-11-21T00:32:45;1.20;;;0.30;;
16113;SDS011;8161;-33.910;151.156;2023-11-21T00:35:13;1.05;;;0.40;;
16113;SDS011;8161;-33.910;151.156;2023-11-21T00:37:41;1.10;;;0.30;;
16113;SDS011;8161;-33.910;151.156;2023-11-21T00:40:08;1.77;;;0.30;;
16113;SDS011;8161;-33.910;151.156;2023-11-21T00:42:36;0.95;;;0.38;;
16113;SDS011;8161;-33.910;151.156;2023-11-21T00:45:05;1.53;;;0.40;;
16113;SDS011;8161;-33.910;151.156;2023-11-21T00:47:33;1.80;;;0.40;;
16113;SDS011;8161;-33.910;151.156;2023-11-21T00:50:00;0.60;;;0.30;;
16113;SDS011;8161;-33.910;151.156;2023-11-21T00:52:28;1.97;;;0.50;;
16113;SDS011;8161;-33.910;151.156;2023-11-21T00:54:55;1.60;;;0.60;;
16113;SDS011;8161;-33.910;151.156;2023-11-21T00:57:24;2.72;;;0.70;;
16113;SDS011;8161;-33.910;151.156;2023-11-21T00:59:51;1.60;;;0.57;;
16113;SDS011;8161;-33.910;151.156;2023-11-21T01:02:22;2.27;;;0.60;;
16113;SDS011;8161;-33.910;151.156;2023-11-21T01:04:50;0.93;;;0.55;;
16113;SDS011;8161;-33.910;151.156;2023-11-21T01:07:17;1.92;;;0.50;;
16113;SDS011;8161;-33.910;151.156;2023-11-21T01:09:46;1.05;;;0.40;;
16113;SDS011;8161;-33.910;151.156;2023-11-21T01:12:14;1.95;;;0.38;;
16113;SDS011;8161;-33.910;151.156;2023-11-21T01:14:43;1.45;;;0.40;;
16113;SDS011;8161;-33.910;151.156;2023-11-21T01:17:11;2.50;;;0.50;;
16113;SDS011;8161;-33.910;151.156;2023-11-21T01:19:38;1.25;;;0.50;;
16113;SDS011;8161;-33.910;151.156;2023-11-21T01:22:05;1.85;;;0.30;;
16113;SDS011;8161;-33.910;151.156;2023-11-21T01:24:32;2.10;;;0.73;;
16113;SDS011;8161;-33.910;151.156;2023-11-21T01:27:00;1.00;;;0.20;;
16113;SDS011;8161;-33.910;151.156;2023-11-21T01:29:27;0.88;;;0.30;;
16113;SDS011;8161;-33.910;151.156;2023-11-21T01:31:54;2.65;;;0.35;;
16113;SDS011;8161;-33.910;151.156;2023-11-21T01:34:23;3.13;;;0.70;;
16113;SDS011;8161;-33.910;151.156;2023-11-21T01:36:50;2.28;;;0.52;;
16113;SDS011;8161;-33.910;151.156;2023-11-21T01:39:17;2.40;;;0.63;;
16113;SDS011;8161;-33.910;151.156;2023-11-21T01:41:53;3.38;;;0.50;;
16113;SDS011;8161;-33.910;151.156;2023-11-21T01:44:20;1.13;;;0.50;;
16113;SDS011;8161;-33.910;151.156;2023-11-21T01:46:50;2.30;;;0.60;;
16113;SDS011;8161;-33.910;151.156;2023-11-21T01:49:19;2.20;;;0.60;;
16113;SDS011;8161;-33.910;151.156;2023-11-21T01:51:47;0.87;;;0.53;;
16113;SDS011;8161;-33.910;151.156;2023-11-21T01:54:16;2.80;;;0.50;;
16113;SDS011;8161;-33.910;151.156;2023-11-21T01:56:45;1.52;;;0.55;;
16113;SDS011;8161;-33.910;151.156;2023-11-21T01:59:14;0.90;;;0.50;;
16113;SDS011;8161;-33.910;151.156;2023-11-21T02:01:49;1.48;;;0.40;;
16113;SDS011;8161;-33.910;151.156;2023-11-21T02:04:17;0.90;;;0.30;;
16113;SDS011;8161;-33.910;151.156;2023-11-21T02:06:46;2.15;;;0.50;;
16113;SDS011;8161;-33.910;151.156;2023-11-21T02:09:14;4.68;;;0.93;;
16113;SDS011;8161;-33.910;151.156;2023-11-21T02:11:41;1.70;;;0.60;;
16113;SDS011;8161;-33.910;151.156;2023-11-21T02:14:09;1.77;;;0.68;;
16113;SDS011;8161;-33.910;151.156;2023-11-21T02:16:39;1.33;;;0.40;;
16113;SDS011;8161;-33.910;151.156;2023-11-21T02:19:07;3.15;;;0.60;;
16113;SDS011;8161;-33.910;151.156;2023-11-21T02:21:36;2.88;;;0.90;;
16113;SDS011;8161;-33.910;151.156;2023-11-21T02:24:06;2.43;;;0.57;;
16113;SDS011;8161;-33.910;151.156;2023-11-21T02:26:34;4.38;;;0.50;;
16113;SDS011;8161;-33.910;151.156;2023-11-21T02:29:01;1.90;;;0.45;;
16113;SDS011;8161;-33.910;151.156;2023-11-21T02:31:30;2.35;;;0.40;;
16113;SDS011;8161;-33.910;151.156;2023-11-21T02:33:58;1.58;;;0.50;;
16113;SDS011;8161;-33.910;151.156;2023-11-21T02:36:26;1.23;;;0.32;;
16113;SDS011;8161;-33.910;151.156;2023-11-21T02:38:53;1.67;;;0.60;;
16113;SDS011;8161;-33.910;151.156;2023-11-21T02:41:21;2.28;;;0.60;;
16113;SDS011;8161;-33.910;151.156;2023-11-21T02:43:48;2.27;;;0.57;;
16113;SDS011;8161;-33.910;151.156;2023-11-21T02:46:15;3.03;;;0.63;;
16113;SDS011;8161;-33.910;151.156;2023-11-21T02:48:43;2.28;;;0.55;;
16113;SDS011;8161;-33.910;151.156;2023-11-21T02:51:10;3.70;;;0.60;;
16113;SDS011;8161;-33.910;151.156;2023-11-21T02:53:37;2.55;;;0.50;;
16113;SDS011;8161;-33.910;151.156;2023-11-21T02:56:04;4.00;;;0.90;;
16113;SDS011;8161;-33.910;151.156;2023-11-21T02:58:32;4.00;;;1.40;;
16113;SDS011;8161;-33.910;151.156;2023-11-21T03:01:00;2.55;;;0.60;;
16113;SDS011;8161;-33.910;151.156;2023-11-21T03:03:27;2.08;;;0.65;;
16113;SDS011;8161;-33.910;151.156;2023-11-21T03:05:55;3.10;;;0.90;;
16113;SDS011;8161;-33.910;151.156;2023-11-21T03:08:22;3.45;;;0.80;;
16113;SDS011;8161;-33.910;151.156;2023-11-21T03:10:49;2.08;;;0.60;;
16113;SDS011;8161;-33.910;151.156;2023-11-21T03:13:16;2.00;;;0.63;;
16113;SDS011;8161;-33.910;151.156;2023-11-21T03:15:43;3.00;;;0.80;;
16113;SDS011;8161;-33.910;151.156;2023-11-21T03:18:14;2.50;;;0.60;;
16113;SDS011;8161;-33.910;151.156;2023-11-21T03:20:43;3.92;;;0.80;;
16113;SDS011;8161;-33.910;151.156;2023-11-21T03:23:16;3.00;;;0.70;;
16113;SDS011;8161;-33.910;151.156;2023-11-21T03:25:43;2.88;;;0.70;;
16113;SDS011;8161;-33.910;151.156;2023-11-21T03:28:13;3.50;;;0.80;;
16113;SDS011;8161;-33.910;151.156;2023-11-21T03:30:41;3.22;;;0.55;;
16113;SDS011;8161;-33.910;151.156;2023-11-21T03:33:08;4.88;;;1.05;;
16113;SDS011;8161;-33.910;151.156;2023-11-21T03:35:35;1.80;;;0.60;;
16113;SDS011;8161;-33.910;151.156;2023-11-21T03:38:02;4.25;;;0.60;;
16113;SDS011;8161;-33.910;151.156;2023-11-21T03:40:30;3.22;;;1.00;;
16113;SDS011;8161;-33.910;151.156;2023-11-21T03:42:58;3.83;;;1.13;;
16113;SDS011;8161;-33.910;151.156;2023-11-21T03:45:25;2.33;;;0.60;;
16113;SDS011;8161;-33.910;151.156;2023-11-21T03:47:52;7.22;;;0.98;;
16113;SDS011;8161;-33.910;151.156;2023-11-21T03:50:19;2.63;;;0.50;;
16113;SDS011;8161;-33.910;151.156;2023-11-21T03:52:47;2.20;;;0.55;;
16113;SDS011;8161;-33.910;151.156;2023-11-21T03:55:14;2.60;;;0.70;;
16113;SDS011;8161;-33.910;151.156;2023-11-21T03:57:42;6.25;;;0.85;;
16113;SDS011;8161;-33.910;151.156;2023-11-21T04:00:09;3.75;;;0.90;;
16113;SDS011;8161;-33.910;151.156;2023-11-21T04:02:37;2.33;;;0.60;;
16113;SDS011;8161;-33.910;151.156;2023-11-21T04:05:06;4.47;;;1.00;;
16113;SDS011;8161;-33.910;151.156;2023-11-21T04:07:33;3.00;;;0.80;;
16113;SDS011;8161;-33.910;151.156;2023-11-21T04:10:01;4.68;;;1.00;;
16113;SDS011;8161;-33.910;151.156;2023-11-21T04:12:28;2.88;;;0.95;;
16113;SDS011;8161;-33.910;151.156;2023-11-21T04:14:56;2.80;;;0.83;;
16113;SDS011;8161;-33.910;151.156;2023-11-21T04:17:23;2.58;;;0.50;;
16113;SDS011;8161;-33.910;151.156;2023-11-21T04:19:50;2.67;;;0.55;;
16113;SDS011;8161;-33.910;151.156;2023-11-21T04:22:18;2.43;;;0.73;;
16113;SDS011;8161;-33.910;151.156;2023-11-21T04:24:45;3.33;;;0.50;;
16113;SDS011;8161;-33.910;151.156;2023-11-21T04:27:12;2.97;;;0.55;;
16113;SDS011;8161;-33.910;151.156;2023-11-21T04:29:40;3.37;;;0.77;;
16113;SDS011;8161;-33.910;151.156;2023-11-21T04:32:07;3.17;;;0.82;;
16113;SDS011;8161;-33.910;151.156;2023-11-21T04:34:34;5.13;;;0.90;;
16113;SDS011;8161;-33.910;151.156;2023-11-21T04:37:01;4.07;;;0.88;;
16113;SDS011;8161;-33.910;151.156;2023-11-21T04:39:31;4.87;;;0.80;;
16113;SDS011;8161;-33.910;151.156;2023-11-21T04:41:59;2.22;;;0.52;;
16113;SDS011;8161;-33.910;151.156;2023-11-21T04:44:26;3.83;;;0.50;;
16113;SDS011;8161;-33.910;151.156;2023-11-21T04:46:56;3.35;;;0.65;;
16113;SDS011;8161;-33.910;151.156;2023-11-21T04:49:23;4.03;;;0.90;;
16113;SDS011;8161;-33.910;151.156;2023-11-21T04:51:50;3.42;;;0.63;;
16113;SDS011;8161;-33.910;151.156;2023-11-21T04:54:18;3.08;;;0.60;;
16113;SDS011;8161;-33.910;151.156;2023-11-21T04:56:45;2.17;;;0.70;;
16113;SDS011;8161;-33.910;151.156;2023-11-21T04:59:12;3.00;;;0.57;;
16113;SDS011;8161;-33.910;151.156;2023-11-21T05:01:39;5.22;;;0.70;;
16113;SDS011;8161;-33.910;151.156;2023-11-21T05:04:07;2.22;;;0.70;;
16113;SDS011;8161;-33.910;151.156;2023-11-21T05:06:34;2.40;;;0.70;;
16113;SDS011;8161;-33.910;151.156;2023-11-21T05:09:01;4.57;;;0.75;;
16113;SDS011;8161;-33.910;151.156;2023-11-21T05:11:29;2.95;;;0.60;;
16113;SDS011;8161;-33.910;151.156;2023-11-21T05:13:57;3.00;;;0.80;;
16113;SDS011;8161;-33.910;151.156;2023-11-21T05:16:27;4.47;;;1.00;;
16113;SDS011;8161;-33.910;151.156;2023-11-21T05:18:54;1.80;;;0.55;;
16113;SDS011;8161;-33.910;151.156;2023-11-21T05:21:26;2.85;;;0.70;;
16113;SDS011;8161;-33.910;151.156;2023-11-21T05:23:55;2.42;;;0.65;;
16113;SDS011;8161;-33.910;151.156;2023-11-21T05:26:25;3.92;;;0.90;;
16113;SDS011;8161;-33.910;151.156;2023-11-21T05:28:53;5.18;;;1.10;;
16113;SDS011;8161;-33.910;151.156;2023-11-21T05:31:20;2.63;;;0.93;;
16113;SDS011;8161;-33.910;151.156;2023-11-21T05:33:47;1.70;;;0.57;;
16113;SDS011;8161;-33.910;151.156;2023-11-21T05:36:15;3.30;;;0.57;;
16113;SDS011;8161;-33.910;151.156;2023-11-21T05:38:42;2.47;;;0.60;;
16113;SDS011;8161;-33.910;151.156;2023-11-21T05:41:09;3.53;;;0.60;;
16113;SDS011;8161;-33.910;151.156;2023-11-21T05:43:39;2.85;;;1.00;;
16113;SDS011;8161;-33.910;151.156;2023-11-21T05:46:06;4.38;;;1.00;;
16113;SDS011;8161;-33.910;151.156;2023-11-21T05:48:34;3.70;;;0.60;;
16113;SDS011;8161;-33.910;151.156;2023-11-21T05:51:04;3.28;;;0.68;;
16113;SDS011;8161;-33.910;151.156;2023-11-21T05:53:32;3.05;;;0.80;;
16113;SDS011;8161;-33.910;151.156;2023-11-21T05:56:00;3.60;;;0.90;;
16113;SDS011;8161;-33.910;151.156;2023-11-21T05:58:29;2.83;;;1.00;;
16113;SDS011;8161;-33.910;151.156;2023-11-21T06:00:56;3.22;;;0.70;;
16113;SDS011;8161;-33.910;151.156;2023-11-21T06:03:24;2.17;;;0.73;;
16113;SDS011;8161;-33.910;151.156;2023-11-21T06:05:51;2.63;;;0.60;;
16113;SDS011;8161;-33.910;151.156;2023-11-21T06:08:21;1.80;;;0.60;;
16113;SDS011;8161;-33.910;151.156;2023-11-21T06:10:48;2.47;;;0.60;;
16113;SDS011;8161;-33.910;151.156;2023-11-21T06:13:18;2.47;;;0.75;;
16113;SDS011;8161;-33.910;151.156;2023-11-21T06:15:50;3.60;;;0.75;;
16113;SDS011;8161;-33.910;151.156;2023-11-21T06:18:17;3.65;;;0.80;;
16113;SDS011;8161;-33.910;151.156;2023-11-21T06:20:50;3.17;;;0.88;;
16113;SDS011;8161;-33.910;151.156;2023-11-21T06:23:18;2.25;;;0.80;;
16113;SDS011;8161;-33.910;151.156;2023-11-21T06:25:46;3.58;;;0.60;;
16113;SDS011;8161;-33.910;151.156;2023-11-21T06:28:13;3.50;;;0.57;;
16113;SDS011;8161;-33.910;151.156;2023-11-21T06:30:43;3.27;;;0.93;;
16113;SDS011;8161;-33.910;151.156;2023-11-21T06:33:14;3.92;;;0.70;;
16113;SDS011;8161;-33.910;151.156;2023-11-21T06:35:42;2.70;;;0.77;;
16113;SDS011;8161;-33.910;151.156;2023-11-21T06:38:10;3.13;;;0.60;;
16113;SDS011;8161;-33.910;151.156;2023-11-21T06:40:37;3.33;;;0.80;;
16113;SDS011;8161;-33.910;151.156;2023-11-21T06:43:06;2.88;;;0.63;;
16113;SDS011;8161;-33.910;151.156;2023-11-21T06:45:33;3.85;;;0.88;;
16113;SDS011;8161;-33.910;151.156;2023-11-21T06:48:01;4.05;;;1.25;;
16113;SDS011;8161;-33.910;151.156;2023-11-21T06:50:28;4.30;;;1.08;;
16113;SDS011;8161;-33.910;151.156;2023-11-21T06:52:55;3.97;;;1.13;;
16113;SDS011;8161;-33.910;151.156;2023-11-21T06:55:22;4.07;;;0.97;;
16113;SDS011;8161;-33.910;151.156;2023-11-21T06:57:50;4.32;;;0.95;;
16113;SDS011;8161;-33.910;151.156;2023-11-21T07:00:17;3.75;;;1.05;;
16113;SDS011;8161;-33.910;151.156;2023-11-21T07:02:45;2.92;;;1.05;;
16113;SDS011;8161;-33.910;151.156;2023-11-21T07:05:15;4.05;;;1.05;;
16113;SDS011;8161;-33.910;151.156;2023-11-21T07:07:46;4.30;;;1.00;;
16113;SDS011;8161;-33.910;151.156;2023-11-21T07:10:14;7.90;;;1.42;;
16113;SDS011;8161;-33.910;151.156;2023-11-21T07:12:42;5.15;;;1.20;;
16113;SDS011;8161;-33.910;151.156;2023-11-21T07:15:10;7.22;;;1.40;;
16113;SDS011;8161;-33.910;151.156;2023-11-21T07:17:38;4.95;;;1.08;;
16113;SDS011;8161;-33.910;151.156;2023-11-21T07:20:12;6.13;;;1.40;;
16113;SDS011;8161;-33.910;151.156;2023-11-21T07:22:42;3.42;;;0.95;;
16113;SDS011;8161;-33.910;151.156;2023-11-21T07:25:10;3.47;;;0.90;;
16113;SDS011;8161;-33.910;151.156;2023-11-21T07:27:37;3.42;;;0.80;;
16113;SDS011;8161;-33.910;151.156;2023-11-21T07:30:05;5.65;;;1.10;;
16113;SDS011;8161;-33.910;151.156;2023-11-21T07:32:35;4.80;;;0.90;;
16113;SDS011;8161;-33.910;151.156;2023-11-21T07:35:05;4.20;;;1.10;;
16113;SDS011;8161;-33.910;151.156;2023-11-21T07:37:33;4.40;;;1.10;;
16113;SDS011;8161;-33.910;151.156;2023-11-21T07:40:00;3.23;;;1.10;;
16113;SDS011;8161;-33.910;151.156;2023-11-21T07:42:28;3.53;;;0.87;;
16113;SDS011;8161;-33.910;151.156;2023-11-21T07:44:55;3.78;;;0.98;;
16113;SDS011;8161;-33.910;151.156;2023-11-21T07:47:23;2.53;;;0.63;;
16113;SDS011;8161;-33.910;151.156;2023-11-21T07:49:53;3.55;;;0.80;;
16113;SDS011;8161;-33.910;151.156;2023-11-21T07:52:22;4.80;;;0.80;;
16113;SDS011;8161;-33.910;151.156;2023-11-21T07:54:49;2.15;;;0.60;;
16113;SDS011;8161;-33.910;151.156;2023-11-21T07:57:16;3.00;;;0.70;;
16113;SDS011;8161;-33.910;151.156;2023-11-21T07:59:44;2.38;;;0.70;;
16113;SDS011;8161;-33.910;151.156;2023-11-21T08:02:11;3.83;;;0.90;;
16113;SDS011;8161;-33.910;151.156;2023-11-21T08:04:38;4.05;;;0.90;;
16113;SDS011;8161;-33.910;151.156;2023-11-21T08:07:05;2.65;;;0.80;;
16113;SDS011;8161;-33.910;151.156;2023-11-21T08:09:33;2.85;;;0.73;;
16113;SDS011;8161;-33.910;151.156;2023-11-21T08:12:00;4.13;;;1.20;;
16113;SDS011;8161;-33.910;151.156;2023-11-21T08:14:28;4.13;;;1.13;;
16113;SDS011;8161;-33.910;151.156;2023-11-21T08:16:55;3.30;;;0.82;;
16113;SDS011;8161;-33.910;151.156;2023-11-21T08:19:23;4.20;;;0.75;;
16113;SDS011;8161;-33.910;151.156;2023-11-21T08:21:51;3.85;;;1.20;;
16113;SDS011;8161;-33.910;151.156;2023-11-21T08:24:20;2.93;;;0.87;;
16113;SDS011;8161;-33.910;151.156;2023-11-21T08:26:48;5.82;;;1.63;;
16113;SDS011;8161;-33.910;151.156;2023-11-21T08:29:16;2.05;;;1.05;;
16113;SDS011;8161;-33.910;151.156;2023-11-21T08:31:44;3.33;;;0.80;;
16113;SDS011;8161;-33.910;151.156;2023-11-21T08:34:12;4.30;;;0.70;;
16113;SDS011;8161;-33.910;151.156;2023-11-21T08:36:43;2.87;;;0.60;;
16113;SDS011;8161;-33.910;151.156;2023-11-21T08:39:11;5.25;;;0.88;;
16113;SDS011;8161;-33.910;151.156;2023-11-21T08:41:38;1.40;;;0.50;;
16113;SDS011;8161;-33.910;151.156;2023-11-21T08:44:07;4.53;;;1.08;;
16113;SDS011;8161;-33.910;151.156;2023-11-21T08:46:34;4.97;;;1.30;;
16113;SDS011;8161;-33.910;151.156;2023-11-21T08:49:02;4.22;;;0.85;;
16113;SDS011;8161;-33.910;151.156;2023-11-21T08:51:29;3.58;;;0.90;;
16113;SDS011;8161;-33.910;151.156;2023-11-21T08:53:57;3.95;;;0.90;;
16113;SDS011;8161;-33.910;151.156;2023-11-21T08:56:26;4.63;;;0.98;;
16113;SDS011;8161;-33.910;151.156;2023-11-21T08:58:54;4.93;;;0.82;;
16113;SDS011;8161;-33.910;151.156;2023-11-21T09:01:21;4.75;;;1.42;;
16113;SDS011;8161;-33.910;151.156;2023-11-21T09:03:50;5.85;;;0.98;;
16113;SDS011;8161;-33.910;151.156;2023-11-21T09:06:17;4.88;;;1.45;;
16113;SDS011;8161;-33.910;151.156;2023-11-21T09:08:44;3.60;;;0.93;;
16113;SDS011;8161;-33.910;151.156;2023-11-21T09:11:12;4.90;;;0.90;;
16113;SDS011;8161;-33.910;151.156;2023-11-21T09:13:39;5.38;;;1.60;;
16113;SDS011;8161;-33.910;151.156;2023-11-21T09:16:06;4.45;;;1.02;;
16113;SDS011;8161;-33.910;151.156;2023-11-21T09:18:34;6.67;;;1.50;;
16113;SDS011;8161;-33.910;151.156;2023-11-21T09:21:01;9.27;;;2.00;;
16113;SDS011;8161;-33.910;151.156;2023-11-21T09:23:30;4.88;;;1.50;;
16113;SDS011;8161;-33.910;151.156;2023-11-21T09:25:57;10.90;;;2.42;;
16113;SDS011;8161;-33.910;151.156;2023-11-21T09:28:26;6.47;;;1.20;;
16113;SDS011;8161;-33.910;151.156;2023-11-21T09:30:54;4.00;;;0.82;;
16113;SDS011;8161;-33.910;151.156;2023-11-21T09:33:21;3.60;;;0.80;;
16113;SDS011;8161;-33.910;151.156;2023-11-21T09:35:50;4.93;;;1.10;;
16113;SDS011;8161;-33.910;151.156;2023-11-21T09:38:18;2.97;;;0.90;;
16113;SDS011;8161;-33.910;151.156;2023-11-21T09:40:45;3.58;;;0.73;;
16113;SDS011;8161;-33.910;151.156;2023-11-21T09:43:15;3.40;;;0.90;;
16113;SDS011;8161;-33.910;151.156;2023-11-21T09:45:47;3.17;;;0.60;;
16113;SDS011;8161;-33.910;151.156;2023-11-21T09:48:20;3.07;;;1.00;;
16113;SDS011;8161;-33.910;151.156;2023-11-21T09:50:51;3.72;;;0.90;;
16113;SDS011;8161;-33.910;151.156;2023-11-21T09:53:21;2.40;;;0.53;;
16113;SDS011;8161;-33.910;151.156;2023-11-21T09:55:53;3.33;;;0.82;;
16113;SDS011;8161;-33.910;151.156;2023-11-21T09:58:22;4.95;;;0.82;;
16113;SDS011;8161;-33.910;151.156;2023-11-21T10:00:53;4.30;;;0.90;;
16113;SDS011;8161;-33.910;151.156;2023-11-21T10:03:23;3.47;;;0.70;;
16113;SDS011;8161;-33.910;151.156;2023-11-21T10:05:51;3.97;;;0.77;;
16113;SDS011;8161;-33.910;151.156;2023-11-21T10:08:26;4.03;;;1.08;;
16113;SDS011;8161;-33.910;151.156;2023-11-21T10:10:54;3.75;;;0.80;;
16113;SDS011;8161;-33.910;151.156;2023-11-21T10:13:22;2.85;;;0.82;;
16113;SDS011;8161;-33.910;151.156;2023-11-21T10:15:51;4.00;;;0.90;;
16113;SDS011;8161;-33.910;151.156;2023-11-21T10:18:18;2.88;;;0.90;;
16113;SDS011;8161;-33.910;151.156;2023-11-21T10:20:48;4.35;;;0.90;;
16113;SDS011;8161;-33.910;151.156;2023-11-21T10:23:19;3.75;;;0.80;;
16113;SDS011;8161;-33.910;151.156;2023-11-21T10:25:51;3.78;;;1.02;;
16113;SDS011;8161;-33.910;151.156;2023-11-21T10:28:18;3.95;;;1.10;;
16113;SDS011;8161;-33.910;151.156;2023-11-21T10:30:46;3.70;;;0.90;;
16113;SDS011;8161;-33.910;151.156;2023-11-21T10:33:13;3.15;;;0.90;;
16113;SDS011;8161;-33.910;151.156;2023-11-21T10:35:45;4.25;;;0.93;;
16113;SDS011;8161;-33.910;151.156;2023-11-21T10:38:21;3.80;;;0.60;;
16113;SDS011;8161;-33.910;151.156;2023-11-21T10:40:50;2.90;;;0.85;;
16113;SDS011;8161;-33.910;151.156;2023-11-21T10:43:17;3.60;;;1.00;;
16113;SDS011;8161;-33.910;151.156;2023-11-21T10:45:45;4.75;;;0.90;;
16113;SDS011;8161;-33.910;151.156;2023-11-21T10:48:15;3.08;;;0.55;;
16113;SDS011;8161;-33.910;151.156;2023-11-21T10:50:43;1.92;;;0.70;;
16113;SDS011;8161;-33.910;151.156;2023-11-21T10:53:11;3.50;;;0.80;;
16113;SDS011;8161;-33.910;151.156;2023-11-21T10:55:39;4.60;;;0.63;;
16113;SDS011;8161;-33.910;151.156;2023-11-21T10:58:06;3.30;;;0.82;;
16113;SDS011;8161;-33.910;151.156;2023-11-21T11:00:36;4.82;;;0.82;;
16113;SDS011;8161;-33.910;151.156;2023-11-21T11:03:06;4.07;;;0.70;;
16113;SDS011;8161;-33.910;151.156;2023-11-21T11:05:39;3.35;;;0.63;;
16113;SDS011;8161;-33.910;151.156;2023-11-21T11:08:16;3.72;;;0.70;;
16113;SDS011;8161;-33.910;151.156;2023-11-21T11:10:51;3.20;;;0.90;;
16113;SDS011;8161;-33.910;151.156;2023-11-21T11:13:19;4.70;;;0.70;;
16113;SDS011;8161;-33.910;151.156;2023-11-21T11:15:47;2.88;;;0.70;;
16113;SDS011;8161;-33.910;151.156;2023-11-21T11:18:15;5.32;;;1.90;;
16113;SDS011;8161;-33.910;151.156;2023-11-21T11:20:43;4.80;;;1.50;;
16113;SDS011;8161;-33.910;151.156;2023-11-21T11:34:35;4.85;;;0.68;;
16113;SDS011;8161;-33.910;151.156;2023-11-21T11:37:09;3.75;;;0.90;;
16113;SDS011;8161;-33.910;151.156;2023-11-21T11:39:42;2.65;;;0.75;;
16113;SDS011;8161;-33.910;151.156;2023-11-21T11:42:14;3.93;;;1.20;;
16113;SDS011;8161;-33.910;151.156;2023-11-21T11:47:22;4.90;;;0.70;;
16113;SDS011;8161;-33.910;151.156;2023-11-21T11:50:08;3.53;;;0.73;;
16113;SDS011;8161;-33.910;151.156;2023-11-21T11:52:46;3.35;;;0.60;;
16113;SDS011;8161;-33.910;151.156;2023-11-21T11:55:23;5.07;;;0.82;;
16113;SDS011;8161;-33.910;151.156;2023-11-21T11:57:54;4.93;;;0.80;;
16113;SDS011;8161;-33.910;151.156;2023-11-21T12:02:57;5.32;;;1.60;;
16113;SDS011;8161;-33.910;151.156;2023-11-21T12:05:29;5.45;;;1.48;;
16113;SDS011;8161;-33.910;151.156;2023-11-21T12:08:05;3.28;;;1.60;;
16113;SDS011;8161;-33.910;151.156;2023-11-21T12:10:34;4.30;;;1.27;;
16113;SDS011;8161;-33.910;151.156;2023-11-21T12:13:04;3.95;;;0.93;;
16113;SDS011;8161;-33.910;151.156;2023-11-21T12:15:35;2.55;;;0.80;;
16113;SDS011;8161;-33.910;151.156;2023-11-21T12:18:04;4.60;;;0.68;;
16113;SDS011;8161;-33.910;151.156;2023-11-21T12:20:31;3.03;;;0.60;;
16113;SDS011;8161;-33.910;151.156;2023-11-21T12:23:04;2.17;;;0.65;;
16113;SDS011;8161;-33.910;151.156;2023-11-21T12:25:34;3.10;;;0.80;;
16113;SDS011;8161;-33.910;151.156;2023-11-21T12:28:02;3.05;;;0.80;;
16113;SDS011;8161;-33.910;151.156;2023-11-21T12:30:32;2.15;;;0.70;;
16113;SDS011;8161;-33.910;151.156;2023-11-21T12:33:01;2.95;;;0.95;;
16113;SDS011;8161;-33.910;151.156;2023-11-21T12:35:33;3.88;;;1.10;;
16113;SDS011;8161;-33.910;151.156;2023-11-21T12:38:01;5.85;;;1.20;;
16113;SDS011;8161;-33.910;151.156;2023-11-21T12:40:30;3.65;;;0.90;;
16113;SDS011;8161;-33.910;151.156;2023-11-21T12:42:58;4.00;;;0.90;;
16113;SDS011;8161;-33.910;151.156;2023-11-21T12:45:27;3.78;;;0.70;;
16113;SDS011;8161;-33.910;151.156;2023-11-21T12:50:26;4.47;;;0.70;;
16113;SDS011;8161;-33.910;151.156;2023-11-21T12:52:58;3.03;;;0.83;;
16113;SDS011;8161;-33.910;151.156;2023-11-21T12:55:29;4.47;;;0.77;;
16113;SDS011;8161;-33.910;151.156;2023-11-21T12:58:03;2.73;;;0.73;;
16113;SDS011;8161;-33.910;151.156;2023-11-21T13:00:35;3.50;;;0.70;;
16113;SDS011;8161;-33.910;151.156;2023-11-21T13:03:14;3.00;;;0.70;;
16113;SDS011;8161;-33.910;151.156;2023-11-21T13:05:45;3.78;;;0.65;;
16113;SDS011;8161;-33.910;151.156;2023-11-21T13:08:19;2.50;;;0.82;;
16113;SDS011;8161;-33.910;151.156;2023-11-21T13:10:51;4.53;;;1.10;;
16113;SDS011;8161;-33.910;151.156;2023-11-21T13:13:21;4.45;;;1.10;;
16113;SDS011;8161;-33.910;151.156;2023-11-21T13:15:55;2.67;;;0.60;;
16113;SDS011;8161;-33.910;151.156;2023-11-21T13:18:32;2.60;;;0.70;;
16113;SDS011;8161;-33.910;151.156;2023-11-21T13:21:04;2.42;;;0.55;;
16113;SDS011;8161;-33.910;151.156;2023-11-21T13:23:41;3.75;;;0.60;;
16113;SDS011;8161;-33.910;151.156;2023-11-21T13:26:11;2.17;;;0.53;;
16113;SDS011;8161;-33.910;151.156;2023-11-21T13:28:40;3.00;;;0.70;;
16113;SDS011;8161;-33.910;151.156;2023-11-21T13:31:11;2.08;;;0.57;;
16113;SDS011;8161;-33.910;151.156;2023-11-21T13:33:58;3.83;;;0.70;;
16113;SDS011;8161;-33.910;151.156;2023-11-21T13:36:30;5.45;;;0.70;;
16113;SDS011;8161;-33.910;151.156;2023-11-21T13:39:01;1.88;;;0.50;;
16113;SDS011;8161;-33.910;151.156;2023-11-21T13:41:40;2.35;;;0.70;;
16113;SDS011;8161;-33.910;151.156;2023-11-21T13:44:08;2.85;;;1.20;;
16113;SDS011;8161;-33.910;151.156;2023-11-21T13:46:51;4.57;;;0.63;;
16113;SDS011;8161;-33.910;151.156;2023-11-21T13:49:19;3.20;;;0.60;;
16113;SDS011;8161;-33.910;151.156;2023-11-21T13:51:47;2.97;;;0.90;;
16113;SDS011;8161;-33.910;151.156;2023-11-21T13:54:17;3.40;;;0.70;;
16113;SDS011;8161;-33.910;151.156;2023-11-21T13:56:47;3.88;;;0.70;;
16113;SDS011;8161;-33.910;151.156;2023-11-21T13:59:16;3.58;;;0.70;;
16113;SDS011;8161;-33.910;151.156;2023-11-21T14:01:55;3.45;;;0.90;;
16113;SDS011;8161;-33.910;151.156;2023-11-21T14:04:26;3.95;;;1.25;;
16113;SDS011;8161;-33.910;151.156;2023-11-21T14:06:58;3.40;;;0.80;;
16113;SDS011;8161;-33.910;151.156;2023-11-21T14:09:46;2.92;;;1.00;;
16113;SDS011;8161;-33.910;151.156;2023-11-21T14:12:14;3.72;;;0.90;;
16113;SDS011;8161;-33.910;151.156;2023-11-21T14:14:42;5.55;;;1.45;;
16113;SDS011;8161;-33.910;151.156;2023-11-21T14:17:10;2.97;;;1.02;;
16113;SDS011;8161;-33.910;151.156;2023-11-21T14:19:38;2.13;;;0.90;;
16113;SDS011;8161;-33.910;151.156;2023-11-21T14:22:09;2.45;;;0.75;;
16113;SDS011;8161;-33.910;151.156;2023-11-21T14:24:37;2.28;;;0.80;;
16113;SDS011;8161;-33.910;151.156;2023-11-21T14:27:09;3.25;;;1.10;;
16113;SDS011;8161;-33.910;151.156;2023-11-21T14:29:36;4.35;;;1.42;;
16113;SDS011;8161;-33.910;151.156;2023-11-21T14:32:08;4.17;;;1.43;;
16113;SDS011;8161;-33.910;151.156;2023-11-21T14:34:35;5.05;;;1.98;;
16113;SDS011;8161;-33.910;151.156;2023-11-21T14:37:02;4.50;;;1.60;;
16113;SDS011;8161;-33.910;151.156;2023-11-21T14:39:29;3.90;;;1.17;;
16113;SDS011;8161;-33.910;151.156;2023-11-21T14:42:00;3.40;;;1.23;;
16113;SDS011;8161;-33.910;151.156;2023-11-21T14:44:28;4.13;;;1.10;;
16113;SDS011;8161;-33.910;151.156;2023-11-21T14:47:01;4.50;;;1.00;;
16113;SDS011;8161;-33.910;151.156;2023-11-21T14:49:32;2.63;;;0.75;;